• Join FlightAware (Why Join?)
  • Login
  • US Flag 
01:26AM EDT


 

Airport Tracker/Info


-or-


 

Live Flight TrackerFlight Track Log ✈ KAP720 ✈ 09-May-2013 ✈ KALB - KOGS

Flight Track Log - Related Links

Times and Time Zones

All times are in EDT time to prevent confusion due to time zone crossing. See the KAP720 flight status page for this flight to view local times or setup timezone preferences in your user account.

Time Position Orientation Groundspeed Altitude Reporting Facility
EDT Latitude Longitude Course Direction KTS MPH feet Rate Location/Type
02:34PM 42.7172 -73.8106 185° South 110 127 1,300  Level Boston Center
02:35PM 42.7231 -73.8392 286° West 131 151 1,900 720 Climbing Boston Center
02:36PM 42.7606 -73.8456 353° North 134 154 2,700 660 Climbing Boston Center
02:37PM 42.7981 -73.8464 359° North 142 163 3,300 660 Climbing Boston Center
02:38PM 42.8375 -73.8558 350° North 142 163 4,100 720 Climbing Boston Center
02:39PM 42.8792 -73.8625 353° North 140 161 4,800 660 Climbing Boston Center
02:40PM 42.9208 -73.8692 353° North 141 162 5,600 720 Climbing Boston Center
02:41PM 42.9644 -73.8786 351° North 140 161 6,400 660 Climbing Boston Center
02:42PM 43.0039 -73.8822 356° North 142 163 7,100 600 Climbing Boston Center
02:43PM 43.0478 -73.8919 351° North 146 168 7,700 540 Climbing Boston Center
02:44PM 43.0892 -73.9014 351° North 148 170 8,300 540 Climbing Boston Center
02:45PM 43.1308 -73.9025 359° North 150 173 8,900 300 Climbing Boston Center
02:46PM 43.1850 -73.9150 350° North 177 204 9,100 60 Climbing Boston Center
02:47PM 43.2389 -73.9250 352° North 182 209 9,100  Level Boston Center
02:48PM 43.2806 -73.9317 353° North 177 204 9,100  Level Boston Center
02:49PM 43.3303 -73.9442 350° North 172 198 9,100  Level Boston Center
02:50PM 43.3719 -73.9539 350° North 167 192 9,100  Level Boston Center
02:51PM 43.4239 -73.9636 352° North 167 192 9,100  Level Boston Center
02:52PM 43.4717 -73.9764 349° North 167 192 9,100  Level Boston Center
02:53PM 43.5175 -73.9861 351° North 162 186 9,100  Level Boston Center
02:54PM 43.5631 -73.9989 349° North 162 186 9,100  Level Boston Center
02:55PM 43.6108 -74.0114 349° North 162 186 9,100  Level Boston Center
02:56PM 43.6586 -74.0242 349° North 162 186 9,100  Level Boston Center
02:57PM 43.7022 -74.0339 351° North 162 186 9,100  Level Boston Center
02:58PM 43.7478 -74.0467 349° North 162 186 9,100  Level Boston Center
02:59PM 43.7958 -74.0567 351° North 162 186 9,100  Level Boston Center
03:00PM 43.8433 -74.0694 349° North 162 186 9,100  Level Boston Center
03:01PM 43.8892 -74.0822 349° North 162 186 9,100  Level Boston Center
03:02PM 43.9369 -74.0892 354° North 162 186 9,100  Level Boston Center
03:03PM 43.9847 -74.1022 349° North 167 192 9,100  Level Boston Center
03:04PM 44.0283 -74.1119 351° North 162 186 9,100  Level Boston Center
03:05PM 44.0739 -74.1247 349° North 162 186 9,100  Level Boston Center
03:06PM 44.1217 -74.1378 349° North 162 186 9,100  Level Boston Center
03:07PM 44.1694 -74.1506 349° North 167 192 9,100  Level Boston Center
03:08PM 44.2172 -74.1636 349° North 167 192 9,100  Level Boston Center
03:09PM 44.2628 -74.1736 351° North 167 192 9,100  Level Boston Center
03:10PM 44.3106 -74.1836 351° North 167 192 9,100  Level Boston Center
03:11PM 44.3458 -74.1933 349° North 161 185 9,100  Level Boston Center
03:12PM 44.3872 -74.2236 332° Northwest 161 185 9,100  Level Boston Center
03:13PM 44.3983 -74.2997 282° West 152 175 9,100 -180 Level Boston Center
03:14PM 44.4119 -74.3639 287° West 159 183 8,800 -780 Descending Boston Center
03:16PM 44.4378 -74.4433 295° West 179 206 7,400 -1,140 Descending Boston Center
03:17PM 44.4572 -74.5167 290° West 193 222 6,300 -960 Descending Boston Center
03:18PM 44.4786 -74.5961 291° West 198 228 5,500 -900 Descending Boston Center
03:19PM 44.4878 -74.6633 281° West 187 215 4,600 -720 Descending Boston Center
03:20PM 44.5033 -74.7250 289° West 181 208 4,100 -540 Descending Boston Center
03:22PM 44.5268 -74.8326 287° West  Level FlightAware Approximate
03:29PM 44.6149 -75.2184 289° West  Level FlightAware Approximate